sensor_id;sensor_type;location;lat;lon;timestamp;P1;durP1;ratioP1;P2;durP2;ratioP2
3211;SDS011;1618;47.056;15.472;2023-06-10T00:01:18;2.60;;;2.43;;
3211;SDS011;1618;47.056;15.472;2023-06-10T00:03:46;2.33;;;2.20;;
3211;SDS011;1618;47.056;15.472;2023-06-10T00:06:17;2.63;;;2.53;;
3211;SDS011;1618;47.056;15.472;2023-06-10T00:08:48;3.40;;;3.20;;
3211;SDS011;1618;47.056;15.472;2023-06-10T00:11:17;2.20;;;2.10;;
3211;SDS011;1618;47.056;15.472;2023-06-10T00:13:46;2.40;;;2.30;;
3211;SDS011;1618;47.056;15.472;2023-06-10T00:16:13;3.07;;;2.90;;
3211;SDS011;1618;47.056;15.472;2023-06-10T00:18:44;2.20;;;2.10;;
3211;SDS011;1618;47.056;15.472;2023-06-10T00:21:12;2.97;;;2.77;;
3211;SDS011;1618;47.056;15.472;2023-06-10T00:23:41;3.07;;;2.90;;
3211;SDS011;1618;47.056;15.472;2023-06-10T00:26:09;3.53;;;3.33;;
3211;SDS011;1618;47.056;15.472;2023-06-10T00:28:37;3.60;;;3.40;;
3211;SDS011;1618;47.056;15.472;2023-06-10T00:31:04;3.67;;;3.47;;
3211;SDS011;1618;47.056;15.472;2023-06-10T00:33:32;3.30;;;3.20;;
3211;SDS011;1618;47.056;15.472;2023-06-10T00:36:01;3.13;;;3.00;;
3211;SDS011;1618;47.056;15.472;2023-06-10T00:38:28;3.37;;;3.17;;
3211;SDS011;1618;47.056;15.472;2023-06-10T00:40:59;3.43;;;3.13;;
3211;SDS011;1618;47.056;15.472;2023-06-10T00:43:27;3.37;;;3.17;;
3211;SDS011;1618;47.056;15.472;2023-06-10T00:46:00;3.17;;;3.03;;
3211;SDS011;1618;47.056;15.472;2023-06-10T00:48:28;3.40;;;3.20;;
3211;SDS011;1618;47.056;15.472;2023-06-10T00:50:56;3.10;;;2.90;;
3211;SDS011;1618;47.056;15.472;2023-06-10T00:53:24;3.33;;;3.17;;
3211;SDS011;1618;47.056;15.472;2023-06-10T00:55:52;3.30;;;3.10;;
3211;SDS011;1618;47.056;15.472;2023-06-10T00:58:22;3.40;;;3.20;;
3211;SDS011;1618;47.056;15.472;2023-06-10T01:00:51;3.53;;;2.93;;
3211;SDS011;1618;47.056;15.472;2023-06-10T01:03:19;3.07;;;2.87;;
3211;SDS011;1618;47.056;15.472;2023-06-10T01:05:53;3.53;;;3.33;;
3211;SDS011;1618;47.056;15.472;2023-06-10T01:08:26;3.97;;;3.77;;
3211;SDS011;1618;47.056;15.472;2023-06-10T01:10:57;3.70;;;3.40;;
3211;SDS011;1618;47.056;15.472;2023-06-10T01:13:27;3.27;;;3.17;;
3211;SDS011;1618;47.056;15.472;2023-06-10T01:15:58;3.90;;;3.70;;
3211;SDS011;1618;47.056;15.472;2023-06-10T01:18:29;9.80;;;3.67;;
3211;SDS011;1618;47.056;15.472;2023-06-10T01:20:57;3.03;;;2.90;;
3211;SDS011;1618;47.056;15.472;2023-06-10T01:23:28;3.70;;;3.50;;
3211;SDS011;1618;47.056;15.472;2023-06-10T01:25:57;3.00;;;2.80;;
3211;SDS011;1618;47.056;15.472;2023-06-10T01:28:30;3.67;;;3.37;;
3211;SDS011;1618;47.056;15.472;2023-06-10T01:31:00;3.40;;;3.20;;
3211;SDS011;1618;47.056;15.472;2023-06-10T01:33:35;3.47;;;3.17;;
3211;SDS011;1618;47.056;15.472;2023-06-10T01:36:03;3.27;;;3.07;;
3211;SDS011;1618;47.056;15.472;2023-06-10T01:38:35;3.30;;;3.00;;
3211;SDS011;1618;47.056;15.472;2023-06-10T01:41:03;3.30;;;3.20;;
3211;SDS011;1618;47.056;15.472;2023-06-10T01:43:32;3.03;;;2.83;;
3211;SDS011;1618;47.056;15.472;2023-06-10T01:46:01;3.70;;;3.50;;
3211;SDS011;1618;47.056;15.472;2023-06-10T01:48:29;4.07;;;3.67;;
3211;SDS011;1618;47.056;15.472;2023-06-10T01:50:56;3.00;;;2.90;;
3211;SDS011;1618;47.056;15.472;2023-06-10T01:53:24;3.60;;;3.40;;
3211;SDS011;1618;47.056;15.472;2023-06-10T01:55:55;3.23;;;2.93;;
3211;SDS011;1618;47.056;15.472;2023-06-10T01:58:23;3.27;;;3.17;;
3211;SDS011;1618;47.056;15.472;2023-06-10T02:00:51;4.73;;;4.50;;
3211;SDS011;1618;47.056;15.472;2023-06-10T02:03:18;4.73;;;4.43;;
3211;SDS011;1618;47.056;15.472;2023-06-10T02:05:47;4.40;;;4.20;;
3211;SDS011;1618;47.056;15.472;2023-06-10T02:08:15;4.40;;;4.20;;
3211;SDS011;1618;47.056;15.472;2023-06-10T02:10:43;4.33;;;4.10;;
3211;SDS011;1618;47.056;15.472;2023-06-10T02:13:12;4.23;;;4.03;;
3211;SDS011;1618;47.056;15.472;2023-06-10T02:15:45;3.90;;;3.70;;
3211;SDS011;1618;47.056;15.472;2023-06-10T02:18:13;3.40;;;3.13;;
3211;SDS011;1618;47.056;15.472;2023-06-10T02:20:41;3.47;;;3.17;;
3211;SDS011;1618;47.056;15.472;2023-06-10T02:23:08;4.33;;;4.10;;
3211;SDS011;1618;47.056;15.472;2023-06-10T02:25:35;4.03;;;3.73;;
3211;SDS011;1618;47.056;15.472;2023-06-10T02:28:04;4.30;;;4.10;;
3211;SDS011;1618;47.056;15.472;2023-06-10T02:30:38;3.60;;;3.50;;
3211;SDS011;1618;47.056;15.472;2023-06-10T02:33:07;3.93;;;3.63;;
3211;SDS011;1618;47.056;15.472;2023-06-10T02:35:37;3.70;;;3.50;;
3211;SDS011;1618;47.056;15.472;2023-06-10T02:38:05;3.80;;;3.60;;
3211;SDS011;1618;47.056;15.472;2023-06-10T02:40:32;3.50;;;3.30;;
3211;SDS011;1618;47.056;15.472;2023-06-10T02:43:01;2.93;;;2.83;;
3211;SDS011;1618;47.056;15.472;2023-06-10T02:45:28;4.30;;;4.10;;
3211;SDS011;1618;47.056;15.472;2023-06-10T02:47:58;4.30;;;4.10;;
3211;SDS011;1618;47.056;15.472;2023-06-10T02:50:28;4.30;;;4.10;;
3211;SDS011;1618;47.056;15.472;2023-06-10T02:52:56;4.20;;;4.00;;
3211;SDS011;1618;47.056;15.472;2023-06-10T02:55:25;4.33;;;4.13;;
3211;SDS011;1618;47.056;15.472;2023-06-10T02:57:54;6.93;;;4.30;;
3211;SDS011;1618;47.056;15.472;2023-06-10T03:00:21;4.07;;;3.87;;
3211;SDS011;1618;47.056;15.472;2023-06-10T03:02:48;3.80;;;3.60;;
3211;SDS011;1618;47.056;15.472;2023-06-10T03:05:18;3.37;;;3.23;;
3211;SDS011;1618;47.056;15.472;2023-06-10T03:07:46;4.23;;;4.03;;
3211;SDS011;1618;47.056;15.472;2023-06-10T03:10:13;4.00;;;3.80;;
3211;SDS011;1618;47.056;15.472;2023-06-10T03:12:41;4.23;;;4.03;;
3211;SDS011;1618;47.056;15.472;2023-06-10T03:15:09;3.50;;;3.30;;
3211;SDS011;1618;47.056;15.472;2023-06-10T03:17:37;4.17;;;3.93;;
3211;SDS011;1618;47.056;15.472;2023-06-10T03:20:05;3.93;;;3.73;;
3211;SDS011;1618;47.056;15.472;2023-06-10T03:22:36;3.40;;;3.20;;
3211;SDS011;1618;47.056;15.472;2023-06-10T03:25:04;3.53;;;3.33;;
3211;SDS011;1618;47.056;15.472;2023-06-10T03:27:34;3.53;;;3.33;;
3211;SDS011;1618;47.056;15.472;2023-06-10T03:30:03;3.33;;;3.17;;
3211;SDS011;1618;47.056;15.472;2023-06-10T03:32:31;4.23;;;3.93;;
3211;SDS011;1618;47.056;15.472;2023-06-10T03:35:00;3.77;;;3.47;;
3211;SDS011;1618;47.056;15.472;2023-06-10T03:37:28;3.80;;;3.53;;
3211;SDS011;1618;47.056;15.472;2023-06-10T03:39:58;4.20;;;3.80;;
3211;SDS011;1618;47.056;15.472;2023-06-10T03:42:25;3.40;;;3.20;;
3211;SDS011;1618;47.056;15.472;2023-06-10T03:44:53;3.93;;;3.63;;
3211;SDS011;1618;47.056;15.472;2023-06-10T03:47:21;3.83;;;3.53;;
3211;SDS011;1618;47.056;15.472;2023-06-10T03:49:49;3.67;;;3.47;;
3211;SDS011;1618;47.056;15.472;2023-06-10T03:52:20;3.27;;;3.07;;
3211;SDS011;1618;47.056;15.472;2023-06-10T03:54:47;4.13;;;3.83;;
3211;SDS011;1618;47.056;15.472;2023-06-10T03:57:18;3.73;;;3.53;;
3211;SDS011;1618;47.056;15.472;2023-06-10T03:59:47;4.83;;;4.17;;
3211;SDS011;1618;47.056;15.472;2023-06-10T04:02:15;4.07;;;3.73;;
3211;SDS011;1618;47.056;15.472;2023-06-10T04:04:43;3.87;;;3.57;;
3211;SDS011;1618;47.056;15.472;2023-06-10T04:07:12;3.33;;;3.07;;
3211;SDS011;1618;47.056;15.472;2023-06-10T04:09:40;3.53;;;3.27;;
3211;SDS011;1618;47.056;15.472;2023-06-10T04:12:08;4.93;;;3.60;;
3211;SDS011;1618;47.056;15.472;2023-06-10T04:14:37;3.47;;;3.27;;
3211;SDS011;1618;47.056;15.472;2023-06-10T04:17:05;3.03;;;2.83;;
3211;SDS011;1618;47.056;15.472;2023-06-10T04:19:32;3.10;;;2.90;;
3211;SDS011;1618;47.056;15.472;2023-06-10T04:22:02;3.43;;;3.17;;
3211;SDS011;1618;47.056;15.472;2023-06-10T04:24:31;3.47;;;3.20;;
3211;SDS011;1618;47.056;15.472;2023-06-10T04:26:59;2.63;;;2.43;;
3211;SDS011;1618;47.056;15.472;2023-06-10T04:29:28;3.40;;;3.10;;
3211;SDS011;1618;47.056;15.472;2023-06-10T04:31:58;2.77;;;2.57;;
3211;SDS011;1618;47.056;15.472;2023-06-10T04:34:26;3.33;;;3.13;;
3211;SDS011;1618;47.056;15.472;2023-06-10T04:36:56;3.50;;;3.30;;
3211;SDS011;1618;47.056;15.472;2023-06-10T04:39:23;3.23;;;3.03;;
3211;SDS011;1618;47.056;15.472;2023-06-10T04:41:51;2.80;;;2.60;;
3211;SDS011;1618;47.056;15.472;2023-06-10T04:44:18;2.80;;;2.60;;
3211;SDS011;1618;47.056;15.472;2023-06-10T04:46:46;3.20;;;3.00;;
3211;SDS011;1618;47.056;15.472;2023-06-10T04:49:16;3.53;;;3.23;;
3211;SDS011;1618;47.056;15.472;2023-06-10T04:51:45;3.10;;;2.90;;
3211;SDS011;1618;47.056;15.472;2023-06-10T04:54:12;3.27;;;3.07;;
3211;SDS011;1618;47.056;15.472;2023-06-10T04:56:42;3.17;;;2.97;;
3211;SDS011;1618;47.056;15.472;2023-06-10T04:59:11;3.20;;;3.00;;
3211;SDS011;1618;47.056;15.472;2023-06-10T05:01:40;2.43;;;2.33;;
3211;SDS011;1618;47.056;15.472;2023-06-10T05:04:10;3.10;;;2.80;;
3211;SDS011;1618;47.056;15.472;2023-06-10T05:06:42;3.10;;;2.90;;
3211;SDS011;1618;47.056;15.472;2023-06-10T05:09:11;3.17;;;2.97;;
3211;SDS011;1618;47.056;15.472;2023-06-10T05:11:41;4.70;;;2.83;;
3211;SDS011;1618;47.056;15.472;2023-06-10T05:14:10;3.00;;;2.80;;
3211;SDS011;1618;47.056;15.472;2023-06-10T05:16:38;2.43;;;2.33;;
3211;SDS011;1618;47.056;15.472;2023-06-10T05:19:06;2.87;;;2.67;;
3211;SDS011;1618;47.056;15.472;2023-06-10T05:21:34;3.20;;;3.00;;
3211;SDS011;1618;47.056;15.472;2023-06-10T05:24:03;4.13;;;3.83;;
3211;SDS011;1618;47.056;15.472;2023-06-10T05:26:32;3.27;;;3.07;;
3211;SDS011;1618;47.056;15.472;2023-06-10T05:29:02;3.53;;;3.33;;
3211;SDS011;1618;47.056;15.472;2023-06-10T05:31:29;3.10;;;3.00;;
3211;SDS011;1618;47.056;15.472;2023-06-10T05:33:58;3.87;;;3.57;;
3211;SDS011;1618;47.056;15.472;2023-06-10T05:36:26;14.03;;;4.77;;
3211;SDS011;1618;47.056;15.472;2023-06-10T05:38:54;3.53;;;3.23;;
3211;SDS011;1618;47.056;15.472;2023-06-10T05:41:24;4.07;;;3.77;;
3211;SDS011;1618;47.056;15.472;2023-06-10T05:43:52;3.50;;;3.30;;
3211;SDS011;1618;47.056;15.472;2023-06-10T05:46:20;3.60;;;3.30;;
3211;SDS011;1618;47.056;15.472;2023-06-10T05:48:48;4.37;;;4.07;;
3211;SDS011;1618;47.056;15.472;2023-06-10T05:51:16;4.07;;;3.87;;
3211;SDS011;1618;47.056;15.472;2023-06-10T05:53:43;4.10;;;3.90;;
3211;SDS011;1618;47.056;15.472;2023-06-10T05:56:12;5.37;;;4.97;;
3211;SDS011;1618;47.056;15.472;2023-06-10T05:58:42;4.80;;;4.50;;
3211;SDS011;1618;47.056;15.472;2023-06-10T06:01:09;4.53;;;4.23;;
3211;SDS011;1618;47.056;15.472;2023-06-10T06:03:37;5.30;;;4.80;;
3211;SDS011;1618;47.056;15.472;2023-06-10T06:06:06;4.37;;;4.10;;
3211;SDS011;1618;47.056;15.472;2023-06-10T06:08:34;5.07;;;4.70;;
3211;SDS011;1618;47.056;15.472;2023-06-10T06:11:01;5.00;;;4.70;;
3211;SDS011;1618;47.056;15.472;2023-06-10T06:13:30;5.60;;;5.00;;
3211;SDS011;1618;47.056;15.472;2023-06-10T06:15:59;5.10;;;4.80;;
3211;SDS011;1618;47.056;15.472;2023-06-10T06:18:28;4.90;;;4.60;;
3211;SDS011;1618;47.056;15.472;2023-06-10T06:20:56;5.43;;;5.10;;
3211;SDS011;1618;47.056;15.472;2023-06-10T06:23:23;6.63;;;6.23;;
3211;SDS011;1618;47.056;15.472;2023-06-10T06:25:52;6.93;;;6.53;;
3211;SDS011;1618;47.056;15.472;2023-06-10T06:28:21;7.00;;;6.70;;
3211;SDS011;1618;47.056;15.472;2023-06-10T06:30:55;8.67;;;8.13;;
3211;SDS011;1618;47.056;15.472;2023-06-10T06:33:24;8.13;;;7.63;;
3211;SDS011;1618;47.056;15.472;2023-06-10T06:35:53;8.13;;;7.73;;
3211;SDS011;1618;47.056;15.472;2023-06-10T06:38:20;7.87;;;7.47;;
3211;SDS011;1618;47.056;15.472;2023-06-10T06:40:48;8.03;;;7.53;;
3211;SDS011;1618;47.056;15.472;2023-06-10T06:43:16;8.40;;;8.00;;
3211;SDS011;1618;47.056;15.472;2023-06-10T06:45:45;8.00;;;7.40;;
3211;SDS011;1618;47.056;15.472;2023-06-10T06:48:14;8.07;;;7.67;;
3211;SDS011;1618;47.056;15.472;2023-06-10T06:50:43;8.67;;;8.17;;
3211;SDS011;1618;47.056;15.472;2023-06-10T06:53:11;8.53;;;8.13;;
3211;SDS011;1618;47.056;15.472;2023-06-10T06:55:41;10.80;;;10.20;;
3211;SDS011;1618;47.056;15.472;2023-06-10T06:58:10;10.30;;;9.80;;
3211;SDS011;1618;47.056;15.472;2023-06-10T07:00:38;10.73;;;10.20;;
3211;SDS011;1618;47.056;15.472;2023-06-10T07:03:07;11.00;;;10.43;;
3211;SDS011;1618;47.056;15.472;2023-06-10T07:05:35;10.23;;;9.73;;
3211;SDS011;1618;47.056;15.472;2023-06-10T07:08:05;10.13;;;9.63;;
3211;SDS011;1618;47.056;15.472;2023-06-10T07:10:32;12.50;;;11.90;;
3211;SDS011;1618;47.056;15.472;2023-06-10T07:13:00;13.50;;;12.80;;
3211;SDS011;1618;47.056;15.472;2023-06-10T07:15:30;16.63;;;15.73;;
3211;SDS011;1618;47.056;15.472;2023-06-10T07:17:58;17.20;;;16.30;;
3211;SDS011;1618;47.056;15.472;2023-06-10T07:20:27;17.93;;;17.03;;
3211;SDS011;1618;47.056;15.472;2023-06-10T07:22:54;20.60;;;19.47;;
3211;SDS011;1618;47.056;15.472;2023-06-10T07:25:23;22.10;;;20.90;;
3211;SDS011;1618;47.056;15.472;2023-06-10T07:27:51;22.17;;;20.97;;
3211;SDS011;1618;47.056;15.472;2023-06-10T07:30:19;22.00;;;20.80;;
3211;SDS011;1618;47.056;15.472;2023-06-10T07:32:47;21.90;;;20.70;;
3211;SDS011;1618;47.056;15.472;2023-06-10T07:35:14;20.40;;;19.40;;
3211;SDS011;1618;47.056;15.472;2023-06-10T07:37:43;20.17;;;19.17;;
3211;SDS011;1618;47.056;15.472;2023-06-10T07:40:12;20.80;;;19.70;;
3211;SDS011;1618;47.056;15.472;2023-06-10T07:42:42;22.20;;;21.00;;
3211;SDS011;1618;47.056;15.472;2023-06-10T07:45:09;23.83;;;22.60;;
3211;SDS011;1618;47.056;15.472;2023-06-10T07:47:39;33.67;;;31.97;;
3211;SDS011;1618;47.056;15.472;2023-06-10T07:50:07;25.80;;;24.40;;
3211;SDS011;1618;47.056;15.472;2023-06-10T07:52:35;25.83;;;24.43;;
3211;SDS011;1618;47.056;15.472;2023-06-10T07:55:03;31.03;;;29.33;;
3211;SDS011;1618;47.056;15.472;2023-06-10T07:57:32;20.83;;;19.73;;
3211;SDS011;1618;47.056;15.472;2023-06-10T08:00:06;28.70;;;27.30;;
3211;SDS011;1618;47.056;15.472;2023-06-10T08:02:33;23.97;;;22.67;;
3211;SDS011;1618;47.056;15.472;2023-06-10T08:05:06;26.03;;;24.63;;
3211;SDS011;1618;47.056;15.472;2023-06-10T08:07:35;24.33;;;23.03;;
3211;SDS011;1618;47.056;15.472;2023-06-10T08:10:03;24.77;;;23.37;;
3211;SDS011;1618;47.056;15.472;2023-06-10T08:12:30;25.13;;;23.73;;
3211;SDS011;1618;47.056;15.472;2023-06-10T08:14:58;26.40;;;24.90;;
3211;SDS011;1618;47.056;15.472;2023-06-10T08:17:28;35.43;;;33.60;;
3211;SDS011;1618;47.056;15.472;2023-06-10T08:19:55;25.30;;;23.80;;
3211;SDS011;1618;47.056;15.472;2023-06-10T08:22:24;24.50;;;23.10;;
3211;SDS011;1618;47.056;15.472;2023-06-10T08:24:52;36.57;;;34.57;;
3211;SDS011;1618;47.056;15.472;2023-06-10T08:27:20;34.33;;;32.33;;
3211;SDS011;1618;47.056;15.472;2023-06-10T08:29:49;28.27;;;26.57;;
3211;SDS011;1618;47.056;15.472;2023-06-10T08:32:19;25.97;;;24.37;;
3211;SDS011;1618;47.056;15.472;2023-06-10T08:34:50;27.07;;;25.37;;
3211;SDS011;1618;47.056;15.472;2023-06-10T08:37:17;25.83;;;24.33;;
3211;SDS011;1618;47.056;15.472;2023-06-10T08:39:45;25.90;;;24.40;;
3211;SDS011;1618;47.056;15.472;2023-06-10T08:42:15;27.77;;;25.97;;
3211;SDS011;1618;47.056;15.472;2023-06-10T08:44:49;27.57;;;25.87;;
3211;SDS011;1618;47.056;15.472;2023-06-10T08:47:19;28.77;;;26.97;;
3211;SDS011;1618;47.056;15.472;2023-06-10T08:49:50;30.87;;;28.87;;
3211;SDS011;1618;47.056;15.472;2023-06-10T08:52:19;30.40;;;28.47;;
3211;SDS011;1618;47.056;15.472;2023-06-10T08:54:47;29.87;;;27.97;;
3211;SDS011;1618;47.056;15.472;2023-06-10T08:57:16;29.50;;;27.60;;
3211;SDS011;1618;47.056;15.472;2023-06-10T08:59:46;29.60;;;27.60;;
3211;SDS011;1618;47.056;15.472;2023-06-10T09:02:15;29.47;;;27.60;;
3211;SDS011;1618;47.056;15.472;2023-06-10T09:04:47;26.97;;;25.33;;
3211;SDS011;1618;47.056;15.472;2023-06-10T09:07:17;28.70;;;26.90;;
3211;SDS011;1618;47.056;15.472;2023-06-10T09:09:45;28.50;;;26.80;;
3211;SDS011;1618;47.056;15.472;2023-06-10T09:12:13;29.80;;;27.90;;
3211;SDS011;1618;47.056;15.472;2023-06-10T09:14:43;30.20;;;28.30;;
3211;SDS011;1618;47.056;15.472;2023-06-10T09:17:11;31.40;;;29.50;;
3211;SDS011;1618;47.056;15.472;2023-06-10T09:19:39;30.80;;;28.80;;
3211;SDS011;1618;47.056;15.472;2023-06-10T09:22:08;31.23;;;29.20;;
3211;SDS011;1618;47.056;15.472;2023-06-10T09:24:38;27.67;;;25.80;;
3211;SDS011;1618;47.056;15.472;2023-06-10T09:27:06;30.30;;;28.20;;
3211;SDS011;1618;47.056;15.472;2023-06-10T09:29:44;29.87;;;27.97;;
3211;SDS011;1618;47.056;15.472;2023-06-10T09:32:13;29.17;;;27.27;;
3211;SDS011;1618;47.056;15.472;2023-06-10T09:34:42;28.97;;;26.90;;
3211;SDS011;1618;47.056;15.472;2023-06-10T09:37:11;29.17;;;27.17;;
3211;SDS011;1618;47.056;15.472;2023-06-10T09:39:42;29.57;;;27.57;;
3211;SDS011;1618;47.056;15.472;2023-06-10T09:42:19;28.73;;;26.90;;
3211;SDS011;1618;47.056;15.472;2023-06-10T09:44:51;29.47;;;27.40;;
3211;SDS011;1618;47.056;15.472;2023-06-10T09:47:20;29.30;;;27.30;;
3211;SDS011;1618;47.056;15.472;2023-06-10T09:49:48;45.20;;;42.30;;
3211;SDS011;1618;47.056;15.472;2023-06-10T09:52:21;32.87;;;30.70;;
3211;SDS011;1618;47.056;15.472;2023-06-10T09:54:50;31.43;;;29.33;;
3211;SDS011;1618;47.056;15.472;2023-06-10T09:57:19;32.83;;;30.63;;
3211;SDS011;1618;47.056;15.472;2023-06-10T09:59:46;30.27;;;28.23;;
3211;SDS011;1618;47.056;15.472;2023-06-10T10:02:15;31.73;;;29.73;;
3211;SDS011;1618;47.056;15.472;2023-06-10T10:04:43;29.00;;;27.10;;
3211;SDS011;1618;47.056;15.472;2023-06-10T10:07:11;28.30;;;26.30;;
3211;SDS011;1618;47.056;15.472;2023-06-10T10:09:40;28.67;;;26.67;;
3211;SDS011;1618;47.056;15.472;2023-06-10T10:12:09;32.93;;;30.63;;
3211;SDS011;1618;47.056;15.472;2023-06-10T10:14:38;29.73;;;27.83;;
3211;SDS011;1618;47.056;15.472;2023-06-10T10:17:09;43.80;;;41.20;;
3211;SDS011;1618;47.056;15.472;2023-06-10T10:19:40;33.93;;;31.50;;
3211;SDS011;1618;47.056;15.472;2023-06-10T10:22:15;41.70;;;38.90;;
3211;SDS011;1618;47.056;15.472;2023-06-10T10:24:46;31.83;;;29.53;;
3211;SDS011;1618;47.056;15.472;2023-06-10T10:27:23;31.83;;;29.42;;
3211;SDS011;1618;47.056;15.472;2023-06-10T10:29:53;33.10;;;30.70;;
3211;SDS011;1618;47.056;15.472;2023-06-10T10:32:22;31.60;;;29.40;;
3211;SDS011;1618;47.056;15.472;2023-06-10T10:34:53;31.10;;;28.40;;
3211;SDS011;1618;47.056;15.472;2023-06-10T10:37:25;36.50;;;33.90;;
3211;SDS011;1618;47.056;15.472;2023-06-10T10:39:53;30.47;;;28.17;;
3211;SDS011;1618;47.056;15.472;2023-06-10T10:42:22;43.13;;;40.23;;
3211;SDS011;1618;47.056;15.472;2023-06-10T10:44:49;32.60;;;29.90;;
3211;SDS011;1618;47.056;15.472;2023-06-10T10:47:19;32.80;;;30.30;;
3211;SDS011;1618;47.056;15.472;2023-06-10T10:49:50;50.37;;;47.07;;
3211;SDS011;1618;47.056;15.472;2023-06-10T10:52:20;39.90;;;37.10;;
3211;SDS011;1618;47.056;15.472;2023-06-10T10:54:47;33.30;;;30.53;;
3211;SDS011;1618;47.056;15.472;2023-06-10T10:57:16;32.90;;;30.30;;
3211;SDS011;1618;47.056;15.472;2023-06-10T10:59:55;33.00;;;30.40;;
3211;SDS011;1618;47.056;15.472;2023-06-10T11:02:37;32.30;;;29.70;;
3211;SDS011;1618;47.056;15.472;2023-06-10T11:05:08;32.53;;;29.87;;
3211;SDS011;1618;47.056;15.472;2023-06-10T11:07:37;36.27;;;33.27;;
3211;SDS011;1618;47.056;15.472;2023-06-10T11:10:08;32.90;;;30.20;;
3211;SDS011;1618;47.056;15.472;2023-06-10T11:12:50;33.70;;;30.90;;
3211;SDS011;1618;47.056;15.472;2023-06-10T11:15:20;32.60;;;29.90;;
3211;SDS011;1618;47.056;15.472;2023-06-10T11:20:41;34.07;;;31.27;;
3211;SDS011;1618;47.056;15.472;2023-06-10T11:23:09;33.67;;;30.90;;
3211;SDS011;1618;47.056;15.472;2023-06-10T11:25:38;31.43;;;28.73;;
3211;SDS011;1618;47.056;15.472;2023-06-10T11:28:17;32.77;;;29.97;;
3211;SDS011;1618;47.056;15.472;2023-06-10T11:30:47;34.23;;;31.53;;
3211;SDS011;1618;47.056;15.472;2023-06-10T11:33:23;34.13;;;31.53;;
3211;SDS011;1618;47.056;15.472;2023-06-10T11:35:51;33.73;;;30.83;;
3211;SDS011;1618;47.056;15.472;2023-06-10T11:38:18;33.00;;;30.00;;
3211;SDS011;1618;47.056;15.472;2023-06-10T11:40:47;32.53;;;29.73;;
3211;SDS011;1618;47.056;15.472;2023-06-10T11:43:16;31.07;;;28.47;;
3211;SDS011;1618;47.056;15.472;2023-06-10T11:45:44;32.80;;;30.20;;
3211;SDS011;1618;47.056;15.472;2023-06-10T11:48:14;34.03;;;31.33;;
3211;SDS011;1618;47.056;15.472;2023-06-10T11:50:43;32.00;;;29.40;;
3211;SDS011;1618;47.056;15.472;2023-06-10T11:53:11;33.40;;;30.80;;
3211;SDS011;1618;47.056;15.472;2023-06-10T11:55:40;32.30;;;29.80;;
3211;SDS011;1618;47.056;15.472;2023-06-10T11:58:11;32.93;;;30.23;;
3211;SDS011;1618;47.056;15.472;2023-06-10T12:00:43;33.00;;;30.50;;
3211;SDS011;1618;47.056;15.472;2023-06-10T12:03:14;32.40;;;29.90;;
3211;SDS011;1618;47.056;15.472;2023-06-10T12:05:53;32.47;;;29.97;;
3211;SDS011;1618;47.056;15.472;2023-06-10T12:08:22;32.70;;;30.20;;
3211;SDS011;1618;47.056;15.472;2023-06-10T12:10:50;32.37;;;29.77;;
3211;SDS011;1618;47.056;15.472;2023-06-10T12:13:17;31.87;;;29.33;;
3211;SDS011;1618;47.056;15.472;2023-06-10T12:15:45;31.87;;;29.33;;
3211;SDS011;1618;47.056;15.472;2023-06-10T12:18:17;31.83;;;29.33;;
3211;SDS011;1618;47.056;15.472;2023-06-10T12:20:44;33.70;;;31.20;;
3211;SDS011;1618;47.056;15.472;2023-06-10T12:23:12;34.73;;;31.97;;
3211;SDS011;1618;47.056;15.472;2023-06-10T12:25:42;33.60;;;30.90;;
3211;SDS011;1618;47.056;15.472;2023-06-10T12:28:20;33.90;;;31.00;;
3211;SDS011;1618;47.056;15.472;2023-06-10T12:30:48;33.83;;;31.00;;
3211;SDS011;1618;47.056;15.472;2023-06-10T12:33:18;36.37;;;33.47;;
3211;SDS011;1618;47.056;15.472;2023-06-10T12:35:48;37.10;;;34.20;;
3211;SDS011;1618;47.056;15.472;2023-06-10T12:38:20;36.90;;;34.00;;
3211;SDS011;1618;47.056;15.472;2023-06-10T12:40:49;38.60;;;35.50;;
3211;SDS011;1618;47.056;15.472;2023-06-10T12:43:21;37.40;;;34.40;;
3211;SDS011;1618;47.056;15.472;2023-06-10T12:45:49;35.67;;;32.67;;
3211;SDS011;1618;47.056;15.472;2023-06-10T12:48:21;36.30;;;33.30;;
3211;SDS011;1618;47.056;15.472;2023-06-10T12:50:51;37.50;;;34.30;;
3211;SDS011;1618;47.056;15.472;2023-06-10T12:53:23;34.40;;;31.20;;
3211;SDS011;1618;47.056;15.472;2023-06-10T12:55:52;36.40;;;33.40;;
3211;SDS011;1618;47.056;15.472;2023-06-10T12:58:21;37.30;;;34.20;;
3211;SDS011;1618;47.056;15.472;2023-06-10T13:00:48;37.13;;;34.23;;
3211;SDS011;1618;47.056;15.472;2023-06-10T13:03:18;35.83;;;33.03;;
3211;SDS011;1618;47.056;15.472;2023-06-10T13:05:48;36.50;;;33.60;;
3211;SDS011;1618;47.056;15.472;2023-06-10T13:08:15;35.13;;;32.40;;
3211;SDS011;1618;47.056;15.472;2023-06-10T13:10:42;35.90;;;33.20;;
3211;SDS011;1618;47.056;15.472;2023-06-10T13:13:11;34.37;;;31.70;;
3211;SDS011;1618;47.056;15.472;2023-06-10T13:15:41;32.93;;;30.43;;
3211;SDS011;1618;47.056;15.472;2023-06-10T13:18:10;31.60;;;29.30;;
3211;SDS011;1618;47.056;15.472;2023-06-10T13:20:39;32.70;;;30.33;;
3211;SDS011;1618;47.056;15.472;2023-06-10T13:23:08;31.10;;;28.70;;
3211;SDS011;1618;47.056;15.472;2023-06-10T13:25:36;31.00;;;28.70;;
3211;SDS011;1618;47.056;15.472;2023-06-10T13:28:04;32.70;;;30.10;;
3211;SDS011;1618;47.056;15.472;2023-06-10T13:30:31;33.13;;;30.50;;
3211;SDS011;1618;47.056;15.472;2023-06-10T13:32:59;34.00;;;31.50;;
3211;SDS011;1618;47.056;15.472;2023-06-10T13:35:26;33.90;;;31.20;;
3211;SDS011;1618;47.056;15.472;2023-06-10T13:37:53;33.57;;;30.90;;
3211;SDS011;1618;47.056;15.472;2023-06-10T13:40:25;33.70;;;30.90;;
3211;SDS011;1618;47.056;15.472;2023-06-10T13:42:53;34.20;;;31.50;;
3211;SDS011;1618;47.056;15.472;2023-06-10T13:45:20;32.90;;;30.40;;
3211;SDS011;1618;47.056;15.472;2023-06-10T13:47:49;32.17;;;29.77;;
3211;SDS011;1618;47.056;15.472;2023-06-10T13:50:17;31.73;;;29.33;;
3211;SDS011;1618;47.056;15.472;2023-06-10T13:52:45;30.60;;;28.40;;
3211;SDS011;1618;47.056;15.472;2023-06-10T13:55:13;31.50;;;29.20;;
3211;SDS011;1618;47.056;15.472;2023-06-10T13:57:44;31.00;;;28.80;;
3211;SDS011;1618;47.056;15.472;2023-06-10T14:00:12;31.70;;;29.40;;
3211;SDS011;1618;47.056;15.472;2023-06-10T14:02:40;31.00;;;28.80;;
3211;SDS011;1618;47.056;15.472;2023-06-10T14:05:08;31.60;;;29.30;;
3211;SDS011;1618;47.056;15.472;2023-06-10T14:07:35;36.93;;;34.13;;
3211;SDS011;1618;47.056;15.472;2023-06-10T14:10:05;38.40;;;35.80;;
3211;SDS011;1618;47.056;15.472;2023-06-10T14:12:39;38.20;;;35.80;;
3211;SDS011;1618;47.056;15.472;2023-06-10T14:18:22;30.70;;;28.97;;
3211;SDS011;1618;47.056;15.472;2023-06-10T14:20:54;27.37;;;25.87;;
3211;SDS011;1618;47.056;15.472;2023-06-10T14:23:25;24.57;;;23.27;;
3211;SDS011;1618;47.056;15.472;2023-06-10T14:25:59;19.50;;;18.50;;
3211;SDS011;1618;47.056;15.472;2023-06-10T14:34:36;13.93;;;12.83;;
3211;SDS011;1618;47.056;15.472;2023-06-10T14:42:57;9.63;;;9.13;;
3211;SDS011;1618;47.056;15.472;2023-06-10T14:45:27;10.30;;;9.73;;
3211;SDS011;1618;47.056;15.472;2023-06-10T14:47:56;9.73;;;9.23;;
3211;SDS011;1618;47.056;15.472;2023-06-10T14:50:25;8.80;;;8.37;;
3211;SDS011;1618;47.056;15.472;2023-06-10T14:52:54;7.40;;;7.10;;
3211;SDS011;1618;47.056;15.472;2023-06-10T14:55:25;6.63;;;6.33;;
3211;SDS011;1618;47.056;15.472;2023-06-10T14:57:52;5.97;;;5.67;;
3211;SDS011;1618;47.056;15.472;2023-06-10T15:00:21;5.87;;;5.53;;
3211;SDS011;1618;47.056;15.472;2023-06-10T15:02:49;6.10;;;5.70;;
3211;SDS011;1618;47.056;15.472;2023-06-10T15:05:17;6.43;;;6.03;;
3211;SDS011;1618;47.056;15.472;2023-06-10T15:07:47;5.60;;;5.20;;
3211;SDS011;1618;47.056;15.472;2023-06-10T15:10:14;5.47;;;5.17;;
3211;SDS011;1618;47.056;15.472;2023-06-10T15:12:44;5.17;;;4.87;;
3211;SDS011;1618;47.056;15.472;2023-06-10T15:15:11;5.60;;;5.30;;
3211;SDS011;1618;47.056;15.472;2023-06-10T15:17:39;5.73;;;5.27;;